Time;durP1;ratioP1;P1;durP2;ratioP2;P2;SDS_P1;SDS_P2;PMS_P1;PMS_P2;Temp;Humidity;BMP_temperature;BMP_pressure;BME280_temperature;BME280_humidity;BME280_pressure;Samples;Min_cycle;Max_cycle;Signal;HPM_P1;HPM_P2
2021/08/08 00:04:28;;;;;;;11.38;5.20;;;;;;;18.36;72.41;100060.56;10494874;28;20028;-79
2021/08/08 00:09:29;;;;;;;18.65;6.38;;;;;;;18.08;72.85;99987.84;10477858;28;20126;-80
2021/08/08 00:14:29;;;;;;;7.55;5.65;;;;;;;18.48;72.84;100050.19;10495163;28;20488;-81
2021/08/08 00:19:31;;;;;;;11.82;7.30;;;;;;;18.21;73.34;99995.56;10495353;28;20063;-81
2021/08/08 00:24:31;;;;;;;19.98;7.28;;;;;;;18.26;73.46;100002.97;10495233;28;20032;-82
2021/08/08 00:29:32;;;;;;;19.52;7.22;;;;;;;18.57;73.86;100075.16;10477770;28;20039;-80
2021/08/08 00:34:32;;;;;;;11.13;6.82;;;;;;;17.48;74.61;99931.72;10461062;28;20040;-81
2021/08/08 00:39:33;;;;;;;13.50;6.90;;;;;;;18.49;73.89;100084.72;10479299;28;20048;-80
2021/08/08 00:44:33;;;;;;;17.23;6.43;;;;;;;18.40;74.55;100066.31;10477625;28;20356;-80
2021/08/08 00:49:34;;;;;;;16.77;5.65;;;;;;;18.12;75.80;100079.38;10493723;28;20125;-80
2021/08/08 00:54:34;;;;;;;12.27;5.32;;;;;;;17.77;76.97;100094.56;10475809;28;20031;-79
2021/08/08 00:59:35;;;;;;;21.58;6.10;;;;;;;17.61;76.09;100040.75;10459216;28;20379;-79
2021/08/08 01:04:37;;;;;;;10.88;6.88;;;;;;;17.97;75.51;100095.75;10492664;28;20451;-81
2021/08/08 01:09:40;;;;;;;14.43;7.75;;;;;;;18.01;75.53;100100.44;10475587;28;20367;-81
2021/08/08 01:14:40;;;;;;;10.93;7.10;;;;;;;17.80;76.30;100104.13;10475118;28;20058;-81
2021/08/08 01:19:51;;;;;;;8.88;6.32;;;;;;;17.78;76.87;100120.84;10474863;28;20036;-81
2021/08/08 01:24:52;;;;;;;10.48;6.25;;;;;;;17.66;75.91;100084.59;10475218;28;20467;-81
2021/08/08 01:29:53;;;;;;;18.63;7.93;;;;;;;18.02;75.44;100136.88;10440987;28;20024;-80
2021/08/08 01:34:53;;;;;;;7.50;4.85;;;;;;;17.49;75.63;100101.19;10472615;28;20119;-80
2021/08/08 01:40:24;;;;;;;19.80;6.25;;;;;;;17.87;75.49;100149.41;10474377;28;20072;-80
2021/08/08 01:45:25;;;;;;;12.35;5.00;;;;;;;18.03;74.31;100147.56;10475948;28;20151;-80
2021/08/08 01:50:31;;;;;;;19.95;5.75;;;;;;;17.86;74.45;100155.94;10492220;28;20127;-80
2021/08/08 01:55:31;;;;;;;16.40;6.27;;;;;;;18.09;73.76;100170.31;10475355;28;20039;-80
2021/08/08 02:00:32;;;;;;;11.65;6.20;;;;;;;18.03;73.45;100168.66;10474231;28;20032;-80
2021/08/08 02:05:32;;;;;;;9.98;4.70;;;;;;;18.03;73.39;100174.97;10472690;28;20037;-80
2021/08/08 02:10:33;;;;;;;11.27;4.53;;;;;;;18.34;72.30;100186.09;10471857;28;20048;-80
2021/08/08 02:15:33;;;;;;;14.15;3.92;;;;;;;18.19;72.39;100180.50;10454948;28;20514;-80
2021/08/08 02:20:34;;;;;;;16.05;4.93;;;;;;;18.08;71.80;100164.03;10439792;28;20044;-80
2021/08/08 02:25:34;;;;;;;10.20;5.05;;;;;;;18.18;71.82;100203.53;10455696;28;20490;-81
2021/08/08 02:30:35;;;;;;;20.92;4.38;;;;;;;18.24;71.19;100205.22;10490268;28;20527;-80
2021/08/08 02:35:36;;;;;;;3.67;3.40;;;;;;;17.67;70.71;100117.16;10454749;28;20390;-80
2021/08/08 02:40:36;;;;;;;5.63;4.30;;;;;;;18.16;71.34;100224.91;10471025;28;20032;-80
2021/08/08 02:45:37;;;;;;;20.58;5.20;;;;;;;18.12;71.99;100241.03;10489142;28;20098;-80
2021/08/08 02:50:37;;;;;;;12.88;5.40;;;;;;;18.26;71.21;100236.75;10496170;28;20097;-80
2021/08/08 02:55:38;;;;;;;15.02;5.68;;;;;;;18.15;71.14;100242.44;10497693;28;20028;-80
2021/08/08 03:00:38;;;;;;;17.50;6.32;;;;;;;18.07;70.73;100243.75;10497657;28;20039;-80
2021/08/08 03:05:39;;;;;;;13.85;4.57;;;;;;;17.65;70.88;100239.84;10497409;28;20032;-80
2021/08/08 03:10:39;;;;;;;16.83;4.50;;;;;;;17.63;70.27;100241.19;10464319;28;20443;-80
2021/08/08 03:15:40;;;;;;;15.93;5.90;;;;;;;17.14;70.66;100178.34;10479407;28;20056;-80
2021/08/08 03:20:41;;;;;;;12.88;5.15;;;;;;;17.60;70.96;100271.81;10446130;28;20044;-80
2021/08/08 03:25:42;;;;;;;9.15;4.35;;;;;;;17.54;71.25;100278.31;10497295;28;20094;-80
2021/08/08 03:30:42;;;;;;;23.67;5.43;;;;;;;16.67;71.01;100124.22;10462248;28;20450;-80
2021/08/08 03:35:43;;;;;;;8.50;4.75;;;;;;;16.92;70.88;100149.13;10495966;28;20028;-80
2021/08/08 03:40:43;;;;;;;8.18;4.07;;;;;;;17.76;70.64;100278.25;10496287;28;20035;-81
2021/08/08 03:45:43;;;;;;;11.93;4.93;;;;;;;17.82;70.46;100283.56;10496765;28;20414;-80
2021/08/08 03:50:44;;;;;;;6.25;4.65;;;;;;;17.91;71.05;100294.88;10496256;28;20035;-81
2021/08/08 03:55:44;;;;;;;7.38;5.30;;;;;;;17.87;70.50;100294.56;10478195;28;20046;-80
2021/08/08 04:00:45;;;;;;;6.35;4.95;;;;;;;18.07;70.12;100306.78;10495716;28;20127;-80
2021/08/08 04:05:45;;;;;;;17.35;5.55;;;;;;;18.03;69.43;100275.53;10477141;28;20039;-80
2021/08/08 04:10:46;;;;;;;10.55;4.32;;;;;;;17.84;69.69;100244.97;10495547;28;20035;-80
2021/08/08 04:15:46;;;;;;;12.80;5.28;;;;;;;17.66;69.92;100224.22;10481893;28;20134;-80
2021/08/08 04:20:47;;;;;;;10.05;3.55;;;;;;;17.95;69.87;100284.22;10502341;28;20452;-80
2021/08/08 04:25:47;;;;;;;6.95;3.35;;;;;;;18.21;68.92;100329.06;10518962;28;20036;-80
2021/08/08 04:30:48;;;;;;;12.35;3.85;;;;;;;18.13;68.64;100336.69;10536412;28;20047;-81
2021/08/08 04:35:48;;;;;;;7.85;4.97;;;;;;;17.99;68.64;100338.19;10534253;28;20498;-80
2021/08/08 04:40:49;;;;;;;8.02;3.63;;;;;;;18.05;69.02;100341.81;10519617;28;20490;-81
2021/08/08 04:45:49;;;;;;;12.40;3.83;;;;;;;18.27;68.11;100345.28;10538140;28;20492;-80
2021/08/08 04:50:49;;;;;;;10.57;4.30;;;;;;;18.23;68.52;100355.13;10502691;28;20074;-80
2021/08/08 04:55:50;;;;;;;11.93;3.58;;;;;;;18.22;68.31;100347.16;10501189;28;20036;-81
2021/08/08 05:00:50;;;;;;;8.80;4.15;;;;;;;17.89;67.83;100284.16;10535632;28;20176;-81
2021/08/08 05:05:51;;;;;;;9.50;4.40;;;;;;;18.43;67.79;100351.72;10535243;28;20040;-81
2021/08/08 05:10:52;;;;;;;10.63;4.90;;;;;;;18.21;68.36;100351.81;10534448;28;20039;-79
2021/08/08 05:15:52;;;;;;;14.25;4.57;;;;;;;17.82;70.49;100364.91;10535638;28;20169;-80
2021/08/08 05:20:52;;;;;;;20.60;6.10;;;;;;;17.56;72.02;100361.03;10535375;28;20505;-79
2021/08/08 05:25:58;;;;;;;12.30;5.13;;;;;;;17.12;72.28;100306.34;10535061;28;20463;-79
2021/08/08 05:30:58;;;;;;;14.75;6.50;;;;;;;17.82;72.03;100382.16;10533676;28;20423;-80
2021/08/08 05:35:59;;;;;;;19.48;6.65;;;;;;;17.78;71.35;100380.19;10533572;28;20064;-80
2021/08/08 05:40:59;;;;;;;19.02;6.22;;;;;;;17.57;71.64;100349.00;10516689;28;20036;-79
2021/08/08 05:46:00;;;;;;;20.38;7.50;;;;;;;17.92;70.85;100397.03;10517443;28;20038;-79
2021/08/08 05:51:00;;;;;;;12.63;5.80;;;;;;;17.42;72.97;100402.50;10515851;28;20035;-78
2021/08/08 05:56:01;;;;;;;25.17;6.45;;;;;;;17.19;73.84;100421.88;10533705;28;20470;-79
2021/08/08 06:01:01;;;;;;;22.33;9.25;;;;;;;16.71;73.31;100313.97;10517239;28;20059;-78
2021/08/08 06:06:02;;;;;;;24.00;8.93;;;;;;;17.50;74.01;100444.19;10535465;28;20032;-78
2021/08/08 06:11:02;;;;;;;29.77;7.57;;;;;;;17.37;75.65;100438.00;10517433;28;20421;-80
2021/08/08 06:16:03;;;;;;;17.73;6.43;;;;;;;16.76;74.41;100297.69;10536975;28;20052;-81
2021/08/08 06:21:04;;;;;;;24.95;7.78;;;;;;;17.99;73.39;100452.44;10502740;28;20070;-81
2021/08/08 06:26:04;;;;;;;19.65;6.05;;;;;;;19.64;71.02;100458.94;10541282;28;20109;-81
2021/08/08 06:31:05;;;;;;;17.63;6.80;;;;;;;20.33;67.89;100472.34;10523088;28;20115;-81
2021/08/08 06:36:05;;;;;;;33.83;6.82;;;;;;;20.33;68.27;100463.25;10537863;28;20052;-81
2021/08/08 06:41:06;;;;;;;11.38;5.85;;;;;;;19.85;68.12;100481.84;10540613;28;20036;-81
2021/08/08 06:46:06;;;;;;;14.85;6.28;;;;;;;19.32;69.48;100478.25;10540375;28;20069;-81
2021/08/08 06:51:07;;;;;;;13.55;5.28;;;;;;;19.59;69.71;100489.94;10539019;28;20177;-80
2021/08/08 06:56:07;;;;;;;24.75;6.55;;;;;;;19.48;68.86;100504.72;10539041;28;20042;-80
2021/08/08 07:01:08;;;;;;;20.10;6.60;;;;;;;19.07;68.31;100518.16;10538773;28;20066;-83
2021/08/08 07:06:08;;;;;;;17.67;5.85;;;;;;;19.16;69.68;100478.16;10539083;28;20028;-81
2021/08/08 07:11:09;;;;;;;18.48;6.50;;;;;;;19.32;69.90;100509.28;10538235;28;20036;-81
2021/08/08 07:16:09;;;;;;;13.85;5.15;;;;;;;20.86;67.43;100516.94;10539115;28;20063;-80
2021/08/08 07:21:10;;;;;;;27.13;6.22;;;;;;;19.97;66.47;100535.47;10520215;28;20485;-80
2021/08/08 07:26:10;;;;;;;16.30;7.53;;;;;;;18.92;68.20;100491.47;10538065;28;20055;-81
2021/08/08 07:31:11;;;;;;;10.50;4.57;;;;;;;18.98;67.19;100486.81;10536443;28;20032;-83
2021/08/08 07:36:11;;;;;;;17.60;6.38;;;;;;;18.59;68.96;100525.41;10536469;28;20028;-82
2021/08/08 07:41:12;;;;;;;13.57;6.50;;;;;;;18.54;69.36;100559.13;10519111;28;20101;-79
2021/08/08 07:46:12;;;;;;;17.83;5.35;;;;;;;18.26;70.92;100532.78;10490681;28;20051;-80
2021/08/08 07:51:13;;;;;;;12.27;6.43;;;;;;;17.73;69.95;100404.75;10537344;28;20124;-81
2021/08/08 07:56:14;;;;;;;16.70;7.20;;;;;;;19.06;68.68;100516.53;10519354;28;20024;-81
2021/08/08 08:01:14;;;;;;;13.05;6.47;;;;;;;19.38;69.31;100567.81;10517332;28;20028;-81
2021/08/08 08:06:14;;;;;;;13.05;5.00;;;;;;;19.07;68.74;100567.56;10536905;28;20044;-80
2021/08/08 08:11:17;;;;;;;12.88;7.00;;;;;;;18.85;68.33;100522.94;10532352;28;20588;-80
2021/08/08 08:16:17;;;;;;;15.38;5.88;;;;;;;19.40;68.41;100577.44;10533549;28;20108;-80
2021/08/08 08:21:18;;;;;;;20.83;6.60;;;;;;;19.32;67.79;100597.13;10534781;28;20108;-80
2021/08/08 08:26:18;;;;;;;6.55;5.22;;;;;;;18.86;69.65;100598.66;10534687;28;20112;-81
2021/08/08 08:31:18;;;;;;;29.15;6.68;;;;;;;18.92;69.25;100587.50;10534616;28;20115;-80
2021/08/08 08:36:19;;;;;;;8.50;5.47;;;;;;;19.15;68.52;100600.03;10534162;28;20023;-81
2021/08/08 08:41:24;;;;;;;19.83;5.43;;;;;;;19.44;67.27;100610.69;10510684;28;20039;-81
2021/08/08 08:46:25;;;;;;;15.40;5.68;;;;;;;20.39;65.64;100583.19;10490672;28;20101;-79
2021/08/08 08:51:33;;;;;;;10.43;4.53;;;;;;;20.39;64.66;100596.94;10474638;28;20487;-81
2021/08/08 08:56:33;;;;;;;13.68;4.88;;;;;;;20.31;65.18;100601.00;10493372;28;20060;-80
2021/08/08 09:01:34;;;;;;;7.82;4.10;;;;;;;21.25;63.08;100610.03;10474060;28;20040;-80
2021/08/08 09:06:34;;;;;;;19.83;4.30;;;;;;;21.86;64.00;100627.59;10492600;28;20482;-80
2021/08/08 09:11:42;;;;;;;14.60;4.70;;;;;;;21.56;64.41;100621.84;10492229;28;20028;-80
2021/08/08 09:16:44;;;;;;;14.70;5.68;;;;;;;21.14;63.27;100589.91;10474507;28;20070;-80
2021/08/08 09:21:46;;;;;;;8.82;4.57;;;;;;;21.57;57.69;100593.22;10516793;28;20127;-81
2021/08/08 09:26:46;;;;;;;14.25;5.32;;;;;;;20.42;59.41;100522.09;10536094;28;20116;-80
2021/08/08 09:31:48;;;;;;;18.13;5.60;;;;;;;20.58;61.25;100646.78;10516841;28;20492;-81
2021/08/08 09:36:49;;;;;;;10.73;4.68;;;;;;;20.63;60.55;100617.38;10517641;28;20468;-80
2021/08/08 09:41:49;;;;;;;8.82;4.53;;;;;;;21.29;59.89;100663.44;10507619;28;20048;-81
2021/08/08 09:46:56;;;;;;;9.98;3.42;;;;;;;22.22;61.06;100642.13;10469612;28;20444;-81
2021/08/08 09:51:57;;;;;;;16.27;5.20;;;;;;;22.42;57.82;100668.81;10512268;28;20117;-82
2021/08/08 09:56:58;;;;;;;14.57;4.18;;;;;;;21.83;58.28;100668.41;10515206;28;20077;-82
2021/08/08 10:01:59;;;;;;;10.95;4.03;;;;;;;22.60;54.89;100543.97;10542622;28;20028;-82
2021/08/08 10:07:00;;;;;;;25.15;5.28;;;;;;;24.49;57.85;100679.63;10542665;28;20047;-79
2021/08/08 10:12:04;;;;;;;4.82;3.15;;;;;;;23.88;54.23;100650.69;10490062;28;20385;-81
2021/08/08 10:17:04;;;;;;;3.38;3.13;;;;;;;24.21;52.84;100676.59;10524534;28;20047;-79
2021/08/08 10:22:05;;;;;;;7.90;2.85;;;;;;;24.72;50.89;100681.50;10541317;28;20542;-81
2021/08/08 10:27:05;;;;;;;13.32;4.30;;;;;;;24.88;52.81;100687.66;10541911;28;20047;-81
2021/08/08 10:32:06;;;;;;;5.85;3.85;;;;;;;23.76;54.10;100673.19;10522364;28;20382;-79
2021/08/08 10:37:13;;;;;;;9.10;3.60;;;;;;;23.27;54.98;100632.69;10506609;28;20047;-81
2021/08/08 10:42:13;;;;;;;6.68;3.60;;;;;;;24.30;56.39;100702.50;10496553;28;20081;-81
2021/08/08 10:47:24;;;;;;;8.98;3.22;;;;;;;24.63;53.38;100671.41;10463615;28;20471;-82
2021/08/08 10:52:24;;;;;;;5.55;3.13;;;;;;;24.02;54.64;100670.16;10497199;28;20032;-81
2021/08/08 10:57:24;;;;;;;11.95;3.55;;;;;;;24.75;51.35;100692.00;10446741;28;20529;-81
2021/08/08 11:02:28;;;;;;;5.45;3.22;;;;;;;23.80;52.69;100699.16;10491376;28;20127;-84
2021/08/08 11:07:29;;;;;;;4.82;3.17;;;;;;;22.73;53.67;100708.13;10437237;28;20048;-81
2021/08/08 11:12:31;;;;;;;11.10;3.22;;;;;;;22.54;55.39;100676.78;10520221;28;20028;-81
2021/08/08 11:17:31;;;;;;;4.18;2.75;;;;;;;23.52;53.89;100702.69;10490626;28;20048;-82
2021/08/08 11:22:32;;;;;;;4.57;3.35;;;;;;;23.88;52.39;100701.28;10493712;28;20044;-81
2021/08/08 11:27:36;;;;;;;3.08;2.70;;;;;;;23.82;51.51;100709.91;10495086;28;20127;-81
2021/08/08 11:32:36;;;;;;;10.07;2.40;;;;;;;24.05;51.67;100719.38;10493577;28;20341;-82
2021/08/08 11:37:45;;;;;;;7.30;2.97;;;;;;;24.21;51.67;100731.09;10475648;28;20036;-82
2021/08/08 11:42:45;;;;;;;7.00;3.20;;;;;;;24.84;49.65;100725.41;10493382;28;20032;-82
2021/08/08 11:47:46;;;;;;;3.17;2.67;;;;;;;24.35;49.07;100649.03;10494981;28;20383;-82
2021/08/08 11:52:46;;;;;;;7.75;2.92;;;;;;;25.22;49.17;100700.50;10493614;28;20414;-81
2021/08/08 11:57:47;;;;;;;2.65;2.22;;;;;;;24.97;49.85;100721.06;10475543;28;20044;-81
2021/08/08 12:02:47;;;;;;;8.88;3.53;;;;;;;25.27;49.55;100704.03;10489255;28;20166;-83
2021/08/08 12:07:48;;;;;;;4.35;2.00;;;;;;;25.72;47.03;100698.84;10468745;28;20049;-83
2021/08/08 12:12:49;;;;;;;4.40;2.42;;;;;;;24.40;54.03;100781.81;10427279;28;20470;-82
2021/08/08 12:17:56;;;;;;;3.00;2.65;;;;;;;24.23;53.09;100762.91;10487486;28;20105;-82
2021/08/08 12:23:11;;;;;;;3.70;2.90;;;;;;;23.86;54.32;100675.84;10491524;28;20087;-82
2021/08/08 12:28:22;;;;;;;13.48;3.55;;;;;;;23.91;54.66;100611.38;10472871;28;20100;-83
2021/08/08 12:33:22;;;;;;;5.13;2.53;;;;;;;25.22;52.62;100754.00;10473214;28;20075;-83
2021/08/08 12:38:23;;;;;;;3.70;1.75;;;;;;;24.28;52.13;100762.88;10493419;28;20463;-83
2021/08/08 12:43:27;;;;;;;4.50;2.45;;;;;;;22.62;56.11;100762.56;10533235;28;20047;-83
2021/08/08 12:48:29;;;;;;;9.32;3.05;;;;;;;21.42;56.75;100640.06;10517985;28;20080;-83
2021/08/08 12:53:29;;;;;;;6.72;3.70;;;;;;;22.54;59.86;100773.34;10490190;28;20459;-83
2021/08/08 12:58:29;;;;;;;15.73;3.78;;;;;;;22.73;57.51;100777.97;10473205;28;20524;-83
2021/08/08 13:03:30;;;;;;;7.88;4.22;;;;;;;23.35;53.79;100764.69;10490368;28;20097;-81
2021/08/08 13:08:31;;;;;;;11.32;4.43;;;;;;;24.07;50.91;100781.59;10533829;28;20829;-82
2021/08/08 13:13:31;;;;;;;8.00;2.65;;;;;;;23.95;51.70;100739.66;10533550;28;20113;-81
2021/08/08 13:18:32;;;;;;;8.75;4.45;;;;;;;25.56;51.73;100766.78;10515368;28;20459;-82
2021/08/08 13:23:32;;;;;;;9.38;2.10;;;;;;;25.34;46.03;100822.03;10532751;28;20473;-82
2021/08/08 13:28:33;;;;;;;7.32;2.85;;;;;;;24.42;51.22;100820.31;10531609;28;20040;-82
2021/08/08 13:33:34;;;;;;;3.38;2.70;;;;;;;24.82;51.89;100819.03;10526985;28;20041;-82
2021/08/08 13:38:34;;;;;;;9.88;4.25;;;;;;;25.05;49.81;100712.09;10492299;28;20359;-82
2021/08/08 13:43:35;;;;;;;5.25;3.22;;;;;;;25.70;48.42;100803.72;10488322;28;20066;-82
2021/08/08 13:48:37;;;;;;;16.88;3.03;;;;;;;25.01;50.06;100766.44;10474281;28;20147;-82
2021/08/08 13:53:37;;;;;;;15.40;5.25;;;;;;;24.23;49.22;100812.72;10493525;28;20056;-82
2021/08/08 13:58:37;;;;;;;9.45;4.82;;;;;;;23.80;51.16;100818.06;10497659;28;20135;-84
2021/08/08 14:03:38;;;;;;;10.85;5.50;;;;;;;24.09;51.78;100782.13;10491420;28;20036;-83
2021/08/08 14:08:38;;;;;;;8.50;4.13;;;;;;;24.94;49.24;100824.16;10471621;28;20032;-84
2021/08/08 14:13:39;;;;;;;13.40;4.32;;;;;;;24.44;48.17;100815.28;10489836;28;20180;-84
2021/08/08 14:18:39;;;;;;;17.75;6.32;;;;;;;24.48;50.15;100822.75;10453174;28;20087;-82
2021/08/08 14:23:40;;;;;;;9.48;3.15;;;;;;;24.67;47.58;100820.03;10486605;28;20060;-82
2021/08/08 14:28:41;;;;;;;9.45;4.38;;;;;;;24.64;49.37;100825.34;10485958;28;20045;-84
2021/08/08 14:33:41;;;;;;;9.50;3.90;;;;;;;24.41;49.31;100819.50;10436842;28;20032;-84
2021/08/08 14:38:42;;;;;;;7.03;3.45;;;;;;;24.66;48.58;100843.28;10508141;28;20404;-83
2021/08/08 14:43:42;;;;;;;11.80;4.25;;;;;;;24.42;50.02;100851.59;10531988;28;20043;-84
2021/08/08 14:48:43;;;;;;;5.30;3.20;;;;;;;24.34;49.72;100753.34;10484976;28;20482;-85
2021/08/08 14:53:43;;;;;;;9.10;4.43;;;;;;;24.70;48.75;100830.53;10540316;28;20454;-85
2021/08/08 14:58:43;;;;;;;17.10;3.65;;;;;;;23.74;48.09;100763.06;10522044;28;20067;-85
2021/08/08 15:03:44;;;;;;;11.88;2.67;;;;;;;23.90;48.53;100779.25;10521617;28;20035;-84
2021/08/08 15:08:45;;;;;;;17.35;4.50;;;;;;;23.94;47.82;100869.97;10523254;28;20493;-84
2021/08/08 15:13:45;;;;;;;7.05;3.03;;;;;;;23.13;50.37;100881.16;10523993;28;20149;-86
2021/08/08 15:18:46;;;;;;;5.60;3.72;;;;;;;22.40;52.42;100889.84;10530547;28;20119;-85
2021/08/08 15:23:46;;;;;;;9.20;3.85;;;;;;;22.20;53.16;100896.16;10541215;28;20035;-85
2021/08/08 15:28:47;;;;;;;5.55;3.05;;;;;;;21.92;53.63;100900.25;10506165;28;20036;-84
2021/08/08 15:33:47;;;;;;;3.05;2.17;;;;;;;21.77;53.37;100897.47;10519630;28;20097;-83
2021/08/08 15:38:47;;;;;;;9.75;3.10;;;;;;;21.21;54.19;100877.97;10515922;28;20047;-86
2021/08/08 15:43:48;;;;;;;4.00;2.83;;;;;;;21.61;54.37;100893.84;10502548;28;20048;-85
2021/08/08 15:48:50;;;;;;;9.60;2.80;;;;;;;21.36;53.95;100850.50;10498792;28;20545;-84
2021/08/08 15:53:51;;;;;;;15.43;2.97;;;;;;;21.28;55.11;100897.81;10517871;28;20344;-85
2021/08/08 15:58:51;;;;;;;10.25;3.88;;;;;;;21.19;56.61;100903.03;10545164;28;20119;-85
2021/08/08 16:03:52;;;;;;;11.10;4.03;;;;;;;20.92;59.20;100919.66;10542704;28;20118;-84
2021/08/08 16:08:52;;;;;;;9.73;4.18;;;;;;;20.60;59.70;100928.81;10509009;28;20064;-85
2021/08/08 16:13:53;;;;;;;3.78;3.10;;;;;;;19.93;60.16;100822.09;10542669;28;20139;-85
2021/08/08 16:18:53;;;;;;;5.80;3.50;;;;;;;19.98;61.18;100896.34;10508098;28;20032;-85
2021/08/08 16:23:53;;;;;;;2.17;1.98;;;;;;;19.68;60.19;100894.94;10543802;28;20364;-84
2021/08/08 16:28:54;;;;;;;11.45;3.05;;;;;;;19.85;59.53;100891.28;10508799;28;20043;-84
2021/08/08 16:33:56;;;;;;;5.63;3.00;;;;;;;19.98;59.20;100921.09;10523363;28;20058;-85
2021/08/08 16:38:57;;;;;;;2.60;2.05;;;;;;;20.09;58.33;100903.59;10524250;28;20379;-85
2021/08/08 16:43:58;;;;;;;17.13;3.58;;;;;;;20.81;59.26;100937.22;10524596;28;20124;-85
2021/08/08 16:48:58;;;;;;;2.22;2.08;;;;;;;20.17;59.32;100870.13;10542047;28;20433;-84
2021/08/08 16:53:59;;;;;;;6.70;2.40;;;;;;;19.82;60.00;100952.25;10541183;28;20084;-84
2021/08/08 16:58:59;;;;;;;7.28;2.95;;;;;;;19.13;62.48;100901.41;10506825;28;20484;-84
2021/08/08 17:04:00;;;;;;;9.10;3.03;;;;;;;19.36;63.09;100971.69;10523116;28;20400;-84
2021/08/08 17:09:00;;;;;;;3.55;2.05;;;;;;;19.28;63.00;100961.19;10539634;28;20044;-84
2021/08/08 17:14:01;;;;;;;2.80;2.60;;;;;;;19.32;62.70;100969.72;10539178;28;20537;-84
2021/08/08 17:19:01;;;;;;;9.18;2.47;;;;;;;19.32;64.21;100961.50;10539350;28;20101;-84
2021/08/08 17:24:02;;;;;;;15.00;3.47;;;;;;;19.15;63.37;100965.13;10504512;28;20039;-83
2021/08/08 17:29:03;;;;;;;2.92;2.60;;;;;;;19.51;64.89;100963.66;10539217;28;20040;-83
2021/08/08 17:34:03;;;;;;;17.73;3.58;;;;;;;19.13;64.43;100961.78;10520397;28;20036;-83
2021/08/08 17:39:04;;;;;;;14.27;3.58;;;;;;;18.77;64.91;100914.63;10539354;28;20093;-84
2021/08/08 17:44:04;;;;;;;22.60;3.72;;;;;;;18.81;65.37;100934.97;10538923;28;20040;-84
2021/08/08 17:49:04;;;;;;;8.23;2.88;;;;;;;18.88;64.18;100909.28;10521314;28;20064;-84
2021/08/08 17:54:05;;;;;;;16.10;3.75;;;;;;;18.86;66.88;100966.31;10520490;28;20036;-84
2021/08/08 17:59:05;;;;;;;5.07;1.80;;;;;;;19.31;64.44;100962.59;10538654;28;20032;-83
2021/08/08 18:04:12;;;;;;;12.98;4.20;;;;;;;19.40;64.64;100947.31;10518866;28;20115;-84
2021/08/08 18:09:12;;;;;;;4.50;3.72;;;;;;;19.49;64.20;100965.81;10515922;28;20036;-84
2021/08/08 18:14:13;;;;;;;13.02;4.53;;;;;;;19.01;63.33;100874.06;10515996;28;20497;-84
2021/08/08 18:19:13;;;;;;;11.85;3.83;;;;;;;18.88;64.36;100843.44;10504662;28;20093;-83
2021/08/08 18:24:13;;;;;;;8.40;4.00;;;;;;;19.45;64.56;100972.09;10523567;28;20059;-84
2021/08/08 18:29:14;;;;;;;9.90;3.80;;;;;;;19.63;63.43;100985.53;10523118;28;20522;-85
2021/08/08 18:34:14;;;;;;;8.73;4.20;;;;;;;18.50;64.34;100853.28;10536427;28;20028;-84
2021/08/08 18:39:15;;;;;;;12.88;4.10;;;;;;;19.37;62.95;100997.25;10502157;28;20048;-84
2021/08/08 18:44:15;;;;;;;8.18;3.35;;;;;;;19.29;62.87;100993.84;10538404;28;20474;-83
2021/08/08 18:49:16;;;;;;;23.05;5.78;;;;;;;18.75;63.95;100911.28;10519675;28;20064;-83
2021/08/08 18:54:16;;;;;;;7.70;4.30;;;;;;;19.30;64.30;101013.91;10502009;28;20092;-83
2021/08/08 18:59:17;;;;;;;9.20;3.85;;;;;;;19.47;63.29;101014.72;10517125;28;20036;-85
2021/08/08 19:04:17;;;;;;;14.52;3.63;;;;;;;19.66;60.95;101019.94;10498177;28;20520;-84
2021/08/08 19:09:20;;;;;;;4.78;3.47;;;;;;;19.71;61.39;101019.97;10497816;28;20033;-84
2021/08/08 19:14:20;;;;;;;10.43;3.60;;;;;;;19.73;60.43;101039.81;10532863;28;20220;-84
2021/08/08 19:19:21;;;;;;;11.35;4.03;;;;;;;19.13;60.26;100994.72;10515096;28;20122;-83
2021/08/08 19:24:21;;;;;;;11.63;3.60;;;;;;;19.28;61.77;101030.63;10535609;28;20178;-84
2021/08/08 19:29:22;;;;;;;16.38;3.60;;;;;;;18.47;60.28;100914.09;10484029;28;20060;-84
2021/08/08 19:34:22;;;;;;;13.85;2.92;;;;;;;19.15;61.03;101063.94;10485810;28;20070;-84
2021/08/08 19:39:23;;;;;;;21.48;3.33;;;;;;;19.26;60.74;101078.66;10520183;28;20348;-84
2021/08/08 19:44:23;;;;;;;22.17;4.68;;;;;;;18.81;61.00;101038.41;10519889;28;20141;-85
2021/08/08 19:49:25;;;;;;;8.13;3.47;;;;;;;18.92;61.17;101075.06;10503961;28;20046;-83
2021/08/08 19:54:25;;;;;;;8.45;4.22;;;;;;;18.24;62.01;100994.59;10520141;28;20039;-86
2021/08/08 19:59:26;;;;;;;4.53;2.90;;;;;;;19.08;61.63;101092.63;10537170;28;20481;-84
2021/08/08 20:04:26;;;;;;;11.18;3.53;;;;;;;19.11;61.05;101098.44;10536024;28;20032;-84
2021/08/08 20:09:27;;;;;;;6.80;2.92;;;;;;;18.95;61.52;101091.03;10528712;28;20095;-83
2021/08/08 20:14:29;;;;;;;10.73;3.40;;;;;;;18.30;62.86;100993.63;10510132;28;20102;-85
2021/08/08 20:19:30;;;;;;;10.23;3.85;;;;;;;16.59;62.76;100735.09;10511691;28;20087;-84
2021/08/08 20:24:30;;;;;;;15.27;4.35;;;;;;;19.10;62.46;101115.19;10511644;28;20046;-84
2021/08/08 20:29:34;;;;;;;10.10;4.18;;;;;;;18.47;61.40;100999.09;10529792;28;20535;-85
2021/08/08 20:34:35;;;;;;;12.23;2.95;;;;;;;18.53;62.62;101075.75;10510850;28;20028;-83
2021/08/08 20:39:35;;;;;;;6.88;3.70;;;;;;;18.90;63.73;101148.59;10501368;28;20466;-84
2021/08/08 20:44:36;;;;;;;3.30;3.00;;;;;;;18.76;62.82;101134.34;10518093;28;20035;-84
2021/08/08 20:49:36;;;;;;;15.93;4.05;;;;;;;18.64;64.36;101106.94;10535505;28;20438;-84
2021/08/08 20:54:36;;;;;;;11.48;3.70;;;;;;;18.68;63.17;101121.81;10500352;28;20040;-83
2021/08/08 20:59:37;;;;;;;13.05;4.25;;;;;;;18.65;63.52;101146.19;10501167;28;20038;-83
2021/08/08 21:04:37;;;;;;;8.35;2.80;;;;;;;18.40;63.64;101091.66;10516579;28;20385;-83
2021/08/08 21:09:38;;;;;;;5.53;2.35;;;;;;;18.27;63.62;101093.63;10517119;28;20370;-84
2021/08/08 21:14:38;;;;;;;9.13;3.00;;;;;;;18.64;63.21;101153.56;10483838;28;20562;-83
2021/08/08 21:19:41;;;;;;;16.95;3.70;;;;;;;18.19;62.75;101074.84;10535190;28;20059;-84
2021/08/08 21:24:42;;;;;;;6.03;3.25;;;;;;;18.83;63.08;101142.44;10500930;28;20532;-84
2021/08/08 21:29:42;;;;;;;6.57;5.07;;;;;;;18.84;63.25;101160.56;10500108;28;20182;-84
2021/08/08 21:34:43;;;;;;;10.93;3.78;;;;;;;17.86;64.40;100991.41;10482419;28;20445;-84
2021/08/08 21:39:43;;;;;;;8.13;3.25;;;;;;;18.73;63.45;101148.53;10499248;28;20046;-83
2021/08/08 21:44:46;;;;;;;8.90;3.58;;;;;;;18.81;64.60;101146.25;10500805;28;20024;-84
2021/08/08 21:49:47;;;;;;;10.70;3.28;;;;;;;17.70;63.27;100988.59;10535695;28;20100;-83
2021/08/08 21:54:47;;;;;;;11.38;3.58;;;;;;;18.87;64.52;101158.16;10525478;28;20028;-84
2021/08/08 21:59:48;;;;;;;7.32;4.05;;;;;;;18.85;62.57;101160.28;10545432;28;20093;-84
2021/08/08 22:04:50;;;;;;;4.45;2.35;;;;;;;18.94;63.50;101163.47;10526547;28;20365;-83
2021/08/08 22:09:50;;;;;;;13.80;2.92;;;;;;;18.63;63.72;101171.09;10539503;28;20039;-84
2021/08/08 22:14:51;;;;;;;7.90;3.67;;;;;;;18.03;64.68;101087.41;10539897;28;20158;-84
2021/08/08 22:19:51;;;;;;;15.05;5.80;;;;;;;18.59;64.47;101184.47;10520119;28;20517;-83
2021/08/08 22:24:52;;;;;;;14.02;4.20;;;;;;;18.09;64.13;101091.03;10519515;28;20080;-83
2021/08/08 22:29:53;;;;;;;11.60;2.90;;;;;;;18.63;64.22;101187.53;10518615;28;20351;-84
2021/08/08 22:34:53;;;;;;;13.38;3.25;;;;;;;18.63;64.36;101182.06;10517906;28;20047;-83
2021/08/08 22:39:54;;;;;;;22.55;4.20;;;;;;;18.43;64.42;101209.09;10518808;28;20119;-83
2021/08/08 22:44:54;;;;;;;12.73;4.50;;;;;;;18.68;63.43;101186.84;10537548;28;20053;-85
2021/08/08 22:49:55;;;;;;;15.00;4.43;;;;;;;18.56;64.97;101198.66;10538615;28;20506;-83
2021/08/08 22:54:55;;;;;;;9.07;3.63;;;;;;;18.26;65.41;101160.50;10517912;28;20095;-83